Van Nuys, CA (91410)

2:27 PM PDT on April 27, 2015 (GMT -0700)
Reseda | | Change Station
CLOSE
Current Station
Personal Weather Station
Location: Reseda, CA
Elevation: 749 ft
Nearby Weather Stations

Elev 749 ft 34.21 °N, 118.52 °W | Updated 2 seconds ago

Clear
Clear
90.0 °F
Feels Like 86 °F
N
2.9
Wind Variable Wind from North
Gusts 6.5 mph

Today
High -- | Low -- °F
--% Chance of Precip.
Yesterday
High -- | Low -- °F
Precip. -- in
6:08 AM 7:34 PM
Waxing Gibbous, 68% visible
Pressure 29.88 in
Visibility 10.0 miles
Clouds Clear
Heat Index 86 °F
Dew Point 30 °F
Humidity 12%
Rainfall 0.00 in
Snow Depth Not available.
UV 11 out of 12
Pollen 6.70 out of 12
Air Quality Not available.
Flu Activity Sporadic
METAR KVNY 272051Z 36016G21KT 10SM CLR 31/M07 A2990 RMK AO2 SLP117 T03111072 58017 $

More Conditions Fewer Conditions

Pressure 29.88 in
Visibility 10.0 miles
Clouds Clear
Heat Index 86 °F
Dew Point 30 °F
Humidity 12%
Rainfall 0.00 in
Snow Depth Not available.
UV 11 out of 12
Pollen 6.70 out of 12
Air Quality Not available.
Flu Activity Sporadic
METAR KVNY 272051Z 36016G21KT 10SM CLR 31/M07 A2990 RMK AO2 SLP117 T03111072 58017 $

More Conditions Fewer Conditions

10-Day Weather Forecast

Almanac

Astronomy

Apr. 27, 2015 Rise Set
Actual Time
Civil Twilight
Nautical Twilight
Astronomical Twilight
Moon
Length of Visible Light
Length of Day
Tomorrow will be .
, % of the Moon is Illuminated

Today's Extremes

State Highs State Lows

Community

WunderPhotos

Upload Photos

1,817,432 photos uploaded!

WunderBlogs® & News

Nearby

Air Quality

  Air Quality AQ Index Pollutant
Not available.

Snow Depth

Station Depth Elevation

Earthquake Activity

City Distance Mag. Time & Date
Minimum magnitude displayed is 2.5.

Coastal Water Temperatures

Place Temperature

Stations

Nearby Weather Stations

Station Location Temp. Windchill Dew Point Humidity Wind Precip. Elev Updated Type